Time,TemperatureF,DewpointF,PressureIn,WindDirection,WindDirectionDegrees,WindSpeedMPH,WindSpeedGustMPH,Humidity,HourlyPrecipIn,Conditions,Clouds,dailyrainin,SoftwareType,DateUTC
2013-08-30 00:02:00,80.3,75.0,29.97,West,267,0.0,-999.0,83,-99.99,,,0.00,weatherlink.com 1.10,2013-08-30 05:02:00,
2013-08-30 00:17:00,79.8,75.0,29.96,West,267,0.0,-999.0,84,-99.99,,,0.00,weatherlink.com 1.10,2013-08-30 05:17:00,
2013-08-30 00:32:00,79.8,75.0,29.97,West,267,0.0,-999.0,84,-99.99,,,0.00,weatherlink.com 1.10,2013-08-30 05:32:00,
2013-08-30 00:47:00,80.0,74.0,29.97,West,267,0.0,-999.0,83,-99.99,,,0.00,weatherlink.com 1.10,2013-08-30 05:47:00,
2013-08-30 01:02:00,79.7,75.0,29.97,West,267,0.0,-999.0,85,-99.99,,,0.00,weatherlink.com 1.10,2013-08-30 06:02:00,
2013-08-30 01:17:00,79.3,75.0,29.97,West,267,0.0,-999.0,85,-99.99,,,0.00,weatherlink.com 1.10,2013-08-30 06:17:00,
2013-08-30 01:32:00,79.6,74.0,29.97,West,267,0.0,-999.0,83,-99.99,,,0.00,weatherlink.com 1.10,2013-08-30 06:32:00,
2013-08-30 01:47:00,79.9,74.0,29.97,West,267,0.0,-999.0,82,-99.99,,,0.00,weatherlink.com 1.10,2013-08-30 06:47:00,
2013-08-30 02:02:00,79.5,74.0,29.97,West,270,0.0,-999.0,82,-99.99,,,0.00,weatherlink.com 1.10,2013-08-30 07:02:00,
2013-08-30 02:17:00,79.5,73.0,29.97,West,272,0.0,-999.0,80,-99.99,,,0.00,weatherlink.com 1.10,2013-08-30 07:17:00,
2013-08-30 02:32:00,80.0,73.0,29.97,WNW,294,0.0,-999.0,79,-99.99,,,0.00,weatherlink.com 1.10,2013-08-30 07:32:00,
2013-08-30 02:47:00,80.3,73.0,29.97,WNW,298,0.0,-999.0,79,-99.99,,,0.00,weatherlink.com 1.10,2013-08-30 07:47:00,
2013-08-30 03:02:00,79.6,73.0,29.97,WNW,296,0.0,-999.0,79,-99.99,,,0.00,weatherlink.com 1.10,2013-08-30 08:02:00,
2013-08-30 03:17:00,79.8,72.0,29.97,WNW,291,0.0,-999.0,78,-99.99,,,0.00,weatherlink.com 1.10,2013-08-30 08:17:00,
2013-08-30 03:32:00,79.2,73.0,29.96,WNW,288,0.0,-999.0,81,-99.99,,,0.00,weatherlink.com 1.10,2013-08-30 08:32:00,
2013-08-30 03:47:00,78.6,72.0,29.96,WNW,287,0.0,-999.0,81,-99.99,,,0.00,weatherlink.com 1.10,2013-08-30 08:47:00,
2013-08-30 04:02:00,78.9,73.0,29.96,WNW,296,0.0,-999.0,81,-99.99,,,0.00,weatherlink.com 1.10,2013-08-30 09:02:00,
2013-08-30 04:17:00,79.0,73.0,29.96,NW,304,0.0,-999.0,82,-99.99,,,0.00,weatherlink.com 1.10,2013-08-30 09:17:00,
2013-08-30 04:32:00,78.8,73.0,29.95,NW,304,2.0,-999.0,81,-99.99,,,0.00,weatherlink.com 1.10,2013-08-30 09:32:00,
2013-08-30 04:47:00,79.1,72.0,29.95,NW,307,0.0,-999.0,80,-99.99,,,0.00,weatherlink.com 1.10,2013-08-30 09:47:00,
2013-08-30 05:02:00,78.7,73.0,29.95,NW,323,0.0,-999.0,82,-99.99,,,0.00,weatherlink.com 1.10,2013-08-30 10:02:00,
2013-08-30 05:17:00,78.6,72.0,29.96,NW,319,0.0,-999.0,81,-99.99,,,0.00,weatherlink.com 1.10,2013-08-30 10:17:00,
2013-08-30 05:32:00,78.9,73.0,29.96,NW,319,0.0,-999.0,82,-99.99,,,0.00,weatherlink.com 1.10,2013-08-30 10:32:00,
2013-08-30 05:47:00,78.2,73.0,29.96,NW,304,0.0,-999.0,84,-99.99,,,0.00,weatherlink.com 1.10,2013-08-30 10:47:00,
2013-08-30 06:02:00,78.1,73.0,29.97,NW,304,0.0,-999.0,83,-99.99,,,0.00,weatherlink.com 1.10,2013-08-30 11:02:00,
2013-08-30 06:17:00,78.3,72.0,29.97,WNW,303,0.0,-999.0,82,-99.99,,,0.00,weatherlink.com 1.10,2013-08-30 11:17:00,
2013-08-30 06:32:00,77.9,73.0,29.98,WNW,302,0.0,-999.0,84,-99.99,,,0.00,weatherlink.com 1.10,2013-08-30 11:32:00,
2013-08-30 06:47:00,78.1,73.0,29.98,WNW,302,0.0,-999.0,84,-99.99,,,0.00,weatherlink.com 1.10,2013-08-30 11:47:00,
2013-08-30 07:02:00,77.9,73.0,29.98,WNW,302,0.0,-999.0,84,-99.99,,,0.00,weatherlink.com 1.10,2013-08-30 12:02:00,
2013-08-30 07:17:00,77.9,73.0,29.99,NNW,331,0.0,-999.0,85,-99.99,,,0.00,weatherlink.com 1.10,2013-08-30 12:17:00,
2013-08-30 07:32:00,78.4,73.0,29.99,NNW,331,0.0,-999.0,84,-99.99,,,0.00,weatherlink.com 1.10,2013-08-30 12:32:00,
2013-08-30 07:47:00,79.1,74.0,29.99,North,355,0.0,-999.0,83,-99.99,,,0.00,weatherlink.com 1.10,2013-08-30 12:47:00,
2013-08-30 08:02:00,79.0,73.0,29.99,NNW,343,0.0,-999.0,82,-99.99,,,0.00,weatherlink.com 1.10,2013-08-30 13:02:00,
2013-08-30 08:17:00,79.4,74.0,30.00,North,355,0.0,-999.0,83,-99.99,,,0.00,weatherlink.com 1.10,2013-08-30 13:17:00,
2013-08-30 08:32:00,79.6,74.0,30.00,WNW,302,0.0,-999.0,82,-99.99,,,0.00,weatherlink.com 1.10,2013-08-30 13:32:00,
2013-08-30 08:47:00,79.9,73.0,30.00,NNW,336,0.0,-999.0,80,-99.99,,,0.00,weatherlink.com 1.10,2013-08-30 13:47:00,
2013-08-30 09:02:00,80.9,74.0,30.00,NNW,333,0.0,-999.0,80,-99.99,,,0.00,weatherlink.com 1.10,2013-08-30 14:02:00,
2013-08-30 09:18:00,82.0,75.0,30.00,North,5,0.0,-999.0,79,-99.99,,,0.00,weatherlink.com 1.10,2013-08-30 14:18:00,
2013-08-30 09:33:00,83.0,75.0,30.01,North,11,3.0,-999.0,77,-99.99,,,0.00,weatherlink.com 1.10,2013-08-30 14:33:00,
2013-08-30 09:48:00,85.7,76.0,30.01,NW,315,0.0,-999.0,73,-99.99,,,0.00,weatherlink.com 1.10,2013-08-30 14:48:00,
2013-08-30 10:03:00,86.6,77.0,30.01,WNW,284,0.0,-999.0,72,-99.99,,,0.00,weatherlink.com 1.10,2013-08-30 15:03:00,
2013-08-30 10:18:00,86.4,76.0,30.01,NNW,338,0.0,-999.0,71,-99.99,,,0.00,weatherlink.com 1.10,2013-08-30 15:18:00,
2013-08-30 10:33:00,86.7,76.0,30.00,WNW,300,0.0,-999.0,71,-99.99,,,0.00,weatherlink.com 1.10,2013-08-30 15:33:00,
2013-08-30 10:48:00,88.7,75.0,30.00,WSW,243,0.0,-999.0,65,-99.99,,,0.00,weatherlink.com 1.10,2013-08-30 15:48:00,
2013-08-30 11:03:00,89.4,76.0,30.00,NW,311,1.0,-999.0,65,-99.99,,,0.00,weatherlink.com 1.10,2013-08-30 16:03:00,
2013-08-30 11:18:00,89.4,76.0,30.00,WNW,294,0.0,-999.0,64,-99.99,,,0.00,weatherlink.com 1.10,2013-08-30 16:18:00,
2013-08-30 11:33:00,90.3,77.0,29.99,NNW,344,0.0,-999.0,65,-99.99,,,0.00,weatherlink.com 1.10,2013-08-30 16:33:00,
2013-08-30 11:48:00,90.7,77.0,29.98,NW,311,0.0,-999.0,65,-99.99,,,0.00,weatherlink.com 1.10,2013-08-30 16:48:00,
2013-08-30 12:03:00,92.3,76.0,29.98,NW,312,0.0,-999.0,60,-99.99,,,0.00,weatherlink.com 1.10,2013-08-30 17:03:00,
2013-08-30 12:18:00,92.9,75.0,29.98,West,267,0.0,-999.0,57,-99.99,,,0.00,weatherlink.com 1.10,2013-08-30 17:18:00,
2013-08-30 12:33:00,93.7,75.0,29.97,WNW,288,1.0,-999.0,55,-99.99,,,0.00,weatherlink.com 1.10,2013-08-30 17:33:00,
2013-08-30 12:48:00,93.8,74.0,29.97,West,279,0.0,-999.0,53,-99.99,,,0.00,weatherlink.com 1.10,2013-08-30 17:48:00,
2013-08-30 13:03:00,94.7,75.0,29.96,WNW,294,0.0,-999.0,53,-99.99,,,0.00,weatherlink.com 1.10,2013-08-30 18:03:00,
2013-08-30 13:18:00,92.8,76.0,29.96,WSW,258,2.0,-999.0,58,-99.99,,,0.00,weatherlink.com 1.10,2013-08-30 18:18:00,
2013-08-30 13:33:00,89.3,76.0,29.96,SSW,210,8.0,-999.0,65,-99.99,,,0.00,weatherlink.com 1.10,2013-08-30 18:33:00,
2013-08-30 13:48:00,90.0,77.0,29.95,SSW,210,5.0,-999.0,66,-99.99,,,0.00,weatherlink.com 1.10,2013-08-30 18:48:00,
2013-08-30 14:03:00,89.2,77.0,29.95,SW,215,9.0,-999.0,68,-99.99,,,0.00,weatherlink.com 1.10,2013-08-30 19:03:00,
2013-08-30 14:18:00,89.2,78.0,29.94,West,269,8.0,-999.0,69,-99.99,,,0.00,weatherlink.com 1.10,2013-08-30 19:18:00,
2013-08-30 14:33:00,90.1,77.0,29.93,SSW,192,7.0,-999.0,65,-99.99,,,0.00,weatherlink.com 1.10,2013-08-30 19:33:00,
2013-08-30 14:48:00,89.0,77.0,29.93,West,267,8.0,-999.0,67,-99.99,,,0.00,weatherlink.com 1.10,2013-08-30 19:48:00,
2013-08-30 15:03:00,89.2,76.0,29.92,SW,234,4.0,-999.0,66,-99.99,,,0.00,weatherlink.com 1.10,2013-08-30 20:03:00,
2013-08-30 15:18:00,89.5,77.0,29.92,West,273,5.0,-999.0,66,-99.99,,,0.00,weatherlink.com 1.10,2013-08-30 20:18:00,
2013-08-30 15:33:00,89.5,77.0,29.91,West,263,7.0,-999.0,66,-99.99,,,0.00,weatherlink.com 1.10,2013-08-30 20:33:00,
2013-08-30 15:48:00,89.3,77.0,29.91,SW,224,3.0,-999.0,68,-99.99,,,0.00,weatherlink.com 1.10,2013-08-30 20:48:00,
2013-08-30 16:03:00,89.2,76.0,29.91,SW,233,6.0,-999.0,65,-99.99,,,0.00,weatherlink.com 1.10,2013-08-30 21:03:00,
2013-08-30 16:18:00,89.2,77.0,29.91,WSW,240,4.0,-999.0,68,-99.99,,,0.00,weatherlink.com 1.10,2013-08-30 21:18:00,
2013-08-30 16:33:00,88.5,78.0,29.91,West,263,6.0,-999.0,72,-99.99,,,0.00,weatherlink.com 1.10,2013-08-30 21:33:00,
2013-08-30 16:48:00,88.1,77.0,29.90,SW,236,6.0,-999.0,70,-99.99,,,0.00,weatherlink.com 1.10,2013-08-30 21:48:00,
2013-08-30 17:03:00,87.4,77.0,29.90,SSW,205,6.0,-999.0,70,-99.99,,,0.00,weatherlink.com 1.10,2013-08-30 22:03:00,
2013-08-30 17:18:00,86.9,77.0,29.90,WSW,238,10.0,-999.0,73,-99.99,,,0.00,weatherlink.com 1.10,2013-08-30 22:18:00,
2013-08-30 17:33:00,86.2,78.0,29.90,WNW,284,1.0,-999.0,76,-99.99,,,0.00,weatherlink.com 1.10,2013-08-30 22:33:00,
2013-08-30 17:48:00,86.5,78.0,29.90,West,261,9.0,-999.0,75,-99.99,,,0.00,weatherlink.com 1.10,2013-08-30 22:48:00,
2013-08-30 18:03:00,85.8,78.0,29.89,West,264,4.0,-999.0,77,-99.99,,,0.00,weatherlink.com 1.10,2013-08-30 23:03:00,
2013-08-30 18:18:00,85.7,77.0,29.89,West,268,9.0,-999.0,75,-99.99,,,0.00,weatherlink.com 1.10,2013-08-30 23:18:00,
2013-08-30 18:33:00,86.1,77.0,29.89,WSW,255,12.0,-999.0,73,-99.99,,,0.00,weatherlink.com 1.10,2013-08-30 23:33:00,
2013-08-30 18:48:00,85.3,76.0,29.89,WSW,257,12.0,-999.0,73,-99.99,,,0.00,weatherlink.com 1.10,2013-08-30 23:48:00,
2013-08-30 19:03:00,85.4,75.0,29.90,West,261,7.0,-999.0,72,-99.99,,,0.00,weatherlink.com 1.10,2013-08-31 00:03:00,
2013-08-30 19:19:00,85.2,76.0,29.90,West,267,3.0,-999.0,74,-99.99,,,0.00,weatherlink.com 1.10,2013-08-31 00:19:00,
2013-08-30 19:34:00,85.1,77.0,29.91,WSW,250,2.0,-999.0,76,-99.99,,,0.00,weatherlink.com 1.10,2013-08-31 00:34:00,
2013-08-30 19:49:00,85.2,78.0,29.91,West,270,9.0,-999.0,78,-99.99,,,0.00,weatherlink.com 1.10,2013-08-31 00:49:00,
2013-08-30 20:04:00,84.7,78.0,29.91,WSW,250,1.0,-999.0,80,-99.99,,,0.00,weatherlink.com 1.10,2013-08-31 01:04:00,
2013-08-30 20:19:00,84.2,78.0,29.90,WSW,258,10.0,-999.0,81,-99.99,,,0.00,weatherlink.com 1.10,2013-08-31 01:19:00,
2013-08-30 20:34:00,83.9,78.0,29.89,West,264,7.0,-999.0,82,-99.99,,,0.00,weatherlink.com 1.10,2013-08-31 01:34:00,
2013-08-30 20:49:00,83.8,78.0,29.90,West,271,5.0,-999.0,83,-99.99,,,0.00,weatherlink.com 1.10,2013-08-31 01:49:00,
2013-08-30 21:04:00,84.0,78.0,29.91,West,277,3.0,-999.0,83,-99.99,,,0.00,weatherlink.com 1.10,2013-08-31 02:04:00,
2013-08-30 21:19:00,83.9,78.0,29.91,West,261,0.0,-999.0,82,-99.99,,,0.00,weatherlink.com 1.10,2013-08-31 02:19:00,
2013-08-30 21:34:00,84.5,78.0,29.91,West,264,0.0,-999.0,81,-99.99,,,0.00,weatherlink.com 1.10,2013-08-31 02:34:00,
2013-08-30 21:49:00,85.0,78.0,29.92,West,265,0.0,-999.0,80,-99.99,,,0.00,weatherlink.com 1.10,2013-08-31 02:49:00,
2013-08-30 22:04:00,84.6,79.0,29.91,West,265,0.0,-999.0,82,-99.99,,,0.00,weatherlink.com 1.10,2013-08-31 03:04:00,
2013-08-30 22:19:00,84.9,79.0,29.91,West,265,0.0,-999.0,81,-99.99,,,0.00,weatherlink.com 1.10,2013-08-31 03:19:00,
2013-08-30 22:34:00,84.3,78.0,29.91,West,265,0.0,-999.0,82,-99.99,,,0.00,weatherlink.com 1.10,2013-08-31 03:34:00,
2013-08-30 22:49:00,84.9,79.0,29.90,West,272,0.0,-999.0,81,-99.99,,,0.00,weatherlink.com 1.10,2013-08-31 03:49:00,
2013-08-30 23:05:00,84.3,77.0,29.91,West,276,0.0,-999.0,79,-99.99,,,0.00,weatherlink.com 1.10,2013-08-31 04:05:00,
2013-08-30 23:19:00,84.5,78.0,29.90,West,277,0.0,-999.0,80,-99.99,,,0.00,weatherlink.com 1.10,2013-08-31 04:19:00,
2013-08-30 23:34:00,84.6,77.0,29.90,West,281,0.0,-999.0,79,-99.99,,,0.00,weatherlink.com 1.10,2013-08-31 04:34:00,
2013-08-30 23:49:00,85.0,77.0,29.89,WNW,297,0.0,-999.0,76,-99.99,,,0.00,weatherlink.com 1.10,2013-08-31 04:49:00,